Hundvaag 1 weather for Aug 2007
Month no. 242
Obs.
Da.
Temp. Dew Point Precip. Wind
Speed
Wind gusts Cloud cover Press. Humidity Wind dir. Sunny OPT
01.08.2007 11,7   0,0 6,0   1 1010,5 81,0 180,0   65,0 %
02.08.2007 11,3   20,5 2,0   8 1007,8 89,0 270,0 1 70,0 %
03.08.2007 10,8   0,0 4,0   1 1014,9 80,0 0,0   65,0 %
04.08.2007 14,9   0,0 20,0   1 1014,2 77,0 180,0   57,5 %
05.08.2007 15,6   7,0 13,0   1 1014,6 89,0 225,0   60,0 %
06.08.2007 20,3   0,2 9,0   8 1011,8 68,0 135,0 1 90,0 %
07.08.2007 19,3   0,0 8,0   1 1012,9 66,0 225,0   70,0 %
08.08.2007 13,8   6,8 1,0   1 1017,6 87,0 22,5 1 65,0 %
09.08.2007 11,9   0,2 11,0   3 1018,6 85,0 45,0 1 65,0 %
10.08.2007 12,6   0,0 0,0   1 1017,3 93,0 292,5   70,0 %
11.08.2007 13,1   0,0 3,0   2 1014,9 93,0 337,5   72,5 %
12.08.2007 12,9   0,0 1,0   1 1009,5 82,0 247,5 1 70,0 %
13.08.2007 15,4   0,0 4,0   1 1003,7 76,0 157,5   70,0 %
14.08.2007 12,8   6,4 5,0   1 1006,8 83,0 247,5 1 62,5 %
15.08.2007 16,0   16,5 24,0   0 988,8 85,0 247,5   42,5 %
16.08.2007 11,9   9,5 4,0   0 994,2 87,0 225,0   55,0 %
17.08.2007 11,9   7,0 6,0   0 1001,0 88,0 0,0   57,5 %
18.08.2007 11,4   4,8 2,0   5 1011,2 85,0 270,0 1 75,0 %
19.08.2007 13,6   0,4 4,0   0 1011,8 81,0 135,0   65,0 %
20.08.2007 15,6   3,0 8,0   1 1009,1 74,0 135,0   65,0 %
21.08.2007 15,6   3,6 5,0   1 1018,6 80,0 67,5 1 67,5 %
22.08.2007 14,0   0,0 1,0   10 1021,3 89,0 0,0 1 92,5 %
23.08.2007 14,3   0,0 1,0   10 1019,6 91,0 315,0 1 92,5 %
24.08.2007 12,9   0,0 3,0   1 1019,6 88,0 315,0   70,0 %
25.08.2007 12,5   2,5 10,0   1 1019,0 81,0 22,5 1 65,0 %
26.08.2007 11,9   3,2 10,0   3 1015,6 80,0 337,5 1 65,0 %
27.08.2007 10,8   7,0 6,0   3 1015,2 80,0 22,5 1 65,0 %
28.08.2007 9,7   0,0 4,0   3 1018,3 75,0 292,5 1 67,5 %
29.08.2007 9,6   0,5 0,0   3 1016,6 75,0 337,5 1 70,0 %
30.08.2007 10,2   0,9 0,0   2 1010,2 69,0 112,5 1 70,0 %
31.08.2007 12,2   13,5 4,0   1 1003,7 93,0 292,5 1 55,0 %
Avrg/Sum 13,2   113,5 5,8   2,4 1011,9 82,3 183,6 17 67,5 %